createdAt,value
2018-11-03T00:01:54.693Z,96461.27
2018-11-03T00:04:23.420Z,96456.05
2018-11-03T00:06:52.148Z,96458.20
2018-11-03T00:09:20.811Z,96453.95
2018-11-03T00:11:49.552Z,96459.90
2018-11-03T00:14:18.218Z,96455.36
2018-11-03T00:16:46.910Z,96457.64
2018-11-03T00:19:15.647Z,96456.13
2018-11-03T00:21:44.285Z,96447.56
2018-11-03T00:24:12.956Z,96452.47
2018-11-03T00:26:41.685Z,96448.00
2018-11-03T00:29:10.783Z,96454.00
2018-11-03T00:31:39.523Z,96454.41
2018-11-03T00:34:08.237Z,96443.83
2018-11-03T00:36:36.928Z,96438.85
2018-11-03T00:39:08.641Z,96447.38
2018-11-03T00:41:37.330Z,96446.83
2018-11-03T00:44:06.689Z,96441.75
2018-11-03T00:46:35.344Z,96440.63
2018-11-03T00:49:04.078Z,96441.37
2018-11-03T00:51:32.909Z,96437.06
2018-11-03T00:54:01.687Z,96439.91
2018-11-03T00:56:30.304Z,96442.25
2018-11-03T00:58:59.069Z,96442.28
2018-11-03T01:01:27.777Z,96442.23
2018-11-03T01:03:56.426Z,96438.30
2018-11-03T01:06:25.138Z,96447.05
2018-11-03T01:08:53.783Z,96446.02
2018-11-03T01:11:22.494Z,96441.22
2018-11-03T01:13:51.141Z,96438.78
2018-11-03T01:16:19.877Z,96438.73
2018-11-03T01:18:48.513Z,96437.31
2018-11-03T01:21:17.240Z,96433.27
2018-11-03T01:23:45.955Z,96436.08
2018-11-03T01:26:14.550Z,96432.52
2018-11-03T01:28:43.226Z,96424.88
2018-11-03T01:31:11.849Z,96428.92
2018-11-03T01:33:40.482Z,96431.12
2018-11-03T01:36:09.237Z,96425.23
2018-11-03T01:38:38.001Z,96427.94
2018-11-03T01:41:06.676Z,96434.19
2018-11-03T01:43:35.305Z,96424.92
2018-11-03T01:46:03.995Z,96421.95
2018-11-03T01:48:32.730Z,96422.75
2018-11-03T01:51:01.375Z,96420.92
2018-11-03T01:53:30.019Z,96420.11
2018-11-03T01:55:58.675Z,96419.52
2018-11-03T01:58:27.345Z,96418.39
2018-11-03T02:00:56.087Z,96420.00
2018-11-03T02:03:24.760Z,96416.50
2018-11-03T02:05:53.410Z,96424.10
2018-11-03T02:08:22.070Z,96416.06
2018-11-03T02:10:50.699Z,96422.06
2018-11-03T02:13:19.355Z,96422.17
2018-11-03T02:15:47.968Z,96424.09
2018-11-03T02:18:16.618Z,96426.47
2018-11-03T02:20:45.347Z,96417.74
2018-11-03T02:23:14.069Z,96417.03
2018-11-03T02:25:42.729Z,96418.60
2018-11-03T02:28:11.441Z,96419.83
2018-11-03T02:30:40.154Z,96425.87
2018-11-03T02:33:08.771Z,96422.38
2018-11-03T02:35:37.506Z,96415.14
2018-11-03T02:38:06.210Z,96413.45
2018-11-03T02:40:34.962Z,96410.22
2018-11-03T02:43:03.589Z,96416.26
2018-11-03T02:45:32.259Z,96416.00
2018-11-03T02:48:00.958Z,96412.94
2018-11-03T02:50:29.701Z,96410.23
2018-11-03T02:52:58.382Z,96414.17
2018-11-03T02:55:27.010Z,96414.44
2018-11-03T02:57:55.678Z,96230.20
2018-11-03T03:00:24.397Z,96414.88
2018-11-03T03:02:53.057Z,96410.63
2018-11-03T03:05:21.725Z,96412.23
2018-11-03T03:07:50.401Z,96417.42
2018-11-03T03:10:19.073Z,96415.34
2018-11-03T03:12:47.746Z,96414.28
2018-11-03T03:15:16.461Z,96416.26
2018-11-03T03:17:45.192Z,96416.98
2018-11-03T03:20:13.937Z,96414.59
2018-11-03T03:22:42.866Z,96413.67
2018-11-03T03:25:12.218Z,96413.72
2018-11-03T03:27:40.958Z,96410.32
2018-11-03T03:30:10.197Z,96412.84
2018-11-03T03:32:38.910Z,96409.80
2018-11-03T03:35:07.849Z,96413.05
2018-11-03T03:37:36.501Z,96408.78
2018-11-03T03:40:06.067Z,96406.04
2018-11-03T03:42:35.057Z,96401.09
2018-11-03T03:45:03.713Z,96404.64
2018-11-03T03:47:32.388Z,96411.16
2018-11-03T03:50:01.013Z,96408.41
2018-11-03T03:52:29.685Z,96409.39
2018-11-03T03:54:58.667Z,96409.67
2018-11-03T03:57:27.302Z,96409.17
2018-11-03T03:59:55.955Z,96396.66
2018-11-03T04:02:24.585Z,96408.59
2018-11-03T04:04:53.226Z,96403.55
2018-11-03T04:07:22.031Z,96401.09
2018-11-03T04:09:51.381Z,96405.21
2018-11-03T04:12:20.165Z,96396.26
2018-11-03T04:14:48.837Z,96399.55
2018-11-03T04:17:17.513Z,96393.18
2018-11-03T04:19:46.132Z,96400.08
2018-11-03T04:22:14.786Z,96397.38
2018-11-03T04:24:43.699Z,96399.27
2018-11-03T04:27:12.968Z,96396.31
2018-11-03T04:29:41.599Z,96400.12
2018-11-03T04:32:10.287Z,96405.58
2018-11-03T04:34:38.934Z,96405.37
2018-11-03T04:37:07.633Z,96406.28
2018-11-03T04:39:36.290Z,96404.83
2018-11-03T04:42:05.138Z,96403.11
2018-11-03T04:44:33.762Z,96407.16
2018-11-03T04:47:02.449Z,96406.59
2018-11-03T04:49:31.092Z,96404.00
2018-11-03T04:51:59.770Z,96407.26
2018-11-03T04:54:28.461Z,96407.87
2018-11-03T04:56:57.096Z,96406.09
2018-11-03T04:59:25.779Z,96407.28
2018-11-03T05:01:54.434Z,96411.77
2018-11-03T05:04:23.121Z,96417.48
2018-11-03T05:06:51.794Z,96420.30
2018-11-03T05:09:20.404Z,96416.78
2018-11-03T05:11:49.096Z,96413.57
2018-11-03T05:14:17.760Z,96421.44
2018-11-03T05:16:46.497Z,96419.20
2018-11-03T05:19:15.557Z,96417.94
2018-11-03T05:21:44.269Z,96413.45
2018-11-03T05:24:12.959Z,96412.48
2018-11-03T05:26:41.595Z,96415.24
2018-11-03T05:29:10.295Z,96421.80
2018-11-03T05:31:39.080Z,96424.85
2018-11-03T05:34:07.709Z,96427.20
2018-11-03T05:36:36.345Z,96433.25
2018-11-03T05:39:07.356Z,96432.06
2018-11-03T05:41:36.047Z,96436.27
2018-11-03T05:44:04.758Z,96431.61
2018-11-03T05:46:33.594Z,96407.34
2018-11-03T05:49:02.110Z,96436.16
2018-11-03T05:51:30.768Z,96444.39
2018-11-03T05:53:59.477Z,96445.40
2018-11-03T05:56:28.114Z,96447.92
2018-11-03T05:58:56.851Z,96444.97
2018-11-03T06:01:25.518Z,96450.31
2018-11-03T06:03:54.243Z,96451.13
2018-11-03T06:06:22.911Z,96452.39
2018-11-03T06:08:52.133Z,96211.09
2018-11-03T06:11:20.657Z,96446.52
2018-11-03T06:13:49.333Z,96454.27
2018-11-03T06:16:18.050Z,96456.34
2018-11-03T06:18:46.690Z,96458.58
2018-11-03T06:21:15.351Z,96462.95
2018-11-03T06:23:44.121Z,96468.79
2018-11-03T06:26:12.712Z,96473.91
2018-11-03T06:28:41.357Z,96469.58
2018-11-03T06:31:09.997Z,96474.75
2018-11-03T06:33:38.670Z,96471.72
2018-11-03T06:36:07.394Z,96470.25
2018-11-03T06:38:36.131Z,96464.25
2018-11-03T06:41:05.304Z,96461.22
2018-11-03T06:43:33.974Z,96464.00
2018-11-03T06:46:02.809Z,96454.33
2018-11-03T06:48:31.498Z,96459.70
2018-11-03T06:51:00.210Z,96463.98
2018-11-03T06:53:29.014Z,96466.06
2018-11-03T06:56:04.296Z,96469.92
2018-11-03T06:58:32.989Z,96470.22
2018-11-03T07:01:01.659Z,96471.19
2018-11-03T07:03:30.350Z,96467.91
2018-11-03T07:05:58.950Z,96469.36
2018-11-03T07:08:27.627Z,96469.16
2018-11-03T07:10:56.297Z,96465.08
2018-11-03T07:13:25.151Z,96462.22
2018-11-03T07:15:53.682Z,96460.39
2018-11-03T07:18:22.350Z,96455.39
2018-11-03T07:20:51.084Z,96455.09
2018-11-03T07:23:19.746Z,96461.20
2018-11-03T07:25:48.361Z,96459.83
2018-11-03T07:28:17.071Z,96462.99
2018-11-03T07:30:45.726Z,96460.03
2018-11-03T07:33:14.407Z,96456.31
2018-11-03T07:35:43.076Z,96455.61
2018-11-03T07:38:11.778Z,96451.52
2018-11-03T07:40:40.519Z,96455.38
2018-11-03T07:43:09.416Z,96453.73
2018-11-03T07:45:38.115Z,96450.41
2018-11-03T07:48:06.996Z,96454.38
2018-11-03T07:50:35.558Z,96461.50
2018-11-03T07:53:04.564Z,96430.63
2018-11-03T07:55:33.312Z,96453.38
2018-11-03T07:58:02.063Z,96453.86
2018-11-03T08:00:30.863Z,96462.13
2018-11-03T08:02:59.926Z,96450.69
2018-11-03T08:05:29.353Z,96452.37
2018-11-03T08:07:58.093Z,96449.41
2018-11-03T08:10:26.837Z,96451.89
2018-11-03T08:12:55.838Z,96441.61
2018-11-03T08:15:24.906Z,96440.37
2018-11-03T08:17:53.637Z,96431.16
2018-11-03T08:20:22.341Z,96433.64
2018-11-03T08:22:51.001Z,96428.08
2018-11-03T08:25:19.732Z,96427.74
2018-11-03T08:27:48.466Z,96424.95
2018-11-03T08:30:17.260Z,96438.02
2018-11-03T08:32:46.461Z,96418.06
2018-11-03T08:35:15.182Z,96419.81
2018-11-03T08:37:44.190Z,96420.41
2018-11-03T08:40:13.378Z,96416.56
2018-11-03T08:42:42.221Z,96410.56
2018-11-03T08:45:11.749Z,96416.55
2018-11-03T08:47:40.841Z,96415.58
2018-11-03T08:50:10.926Z,96409.75
2018-11-03T08:52:39.832Z,96406.72
2018-11-03T08:55:09.590Z,96397.63
2018-11-03T08:57:38.321Z,96394.22
2018-11-03T09:00:11.133Z,96389.97
2018-11-03T09:02:40.249Z,96382.57
2018-11-03T09:05:09.715Z,96387.77
2018-11-03T09:07:38.843Z,96382.75
2018-11-03T09:10:09.473Z,96382.05
2018-11-03T09:12:38.447Z,96375.37
2018-11-03T09:15:09.171Z,96382.55
2018-11-03T09:17:38.794Z,96375.36
2018-11-03T09:20:08.665Z,96371.72
2018-11-03T09:22:38.200Z,96373.24
2018-11-03T09:25:08.598Z,96362.21
2018-11-03T09:27:37.522Z,96361.68
2018-11-03T09:30:12.197Z,96359.42
2018-11-03T09:32:41.132Z,96354.11
2018-11-03T09:35:11.336Z,96347.97
2018-11-03T09:37:40.615Z,96349.76
2018-11-03T09:40:13.809Z,96340.53
2018-11-03T09:42:43.410Z,96342.92
2018-11-03T09:45:12.760Z,96350.86
2018-11-03T09:47:41.898Z,96346.55
2018-11-03T09:50:12.270Z,96338.00
2018-11-03T09:52:41.746Z,96334.98
2018-11-03T09:55:13.111Z,96328.94
2018-11-03T09:57:42.109Z,96330.33
2018-11-03T10:00:13.485Z,96328.88
2018-11-03T10:02:42.677Z,96324.94
2018-11-03T10:05:12.706Z,96318.30
2018-11-03T10:07:41.436Z,96312.45
2018-11-03T10:10:13.380Z,96310.02
2018-11-03T10:12:42.557Z,96308.97
2018-11-03T10:15:12.488Z,96299.67
2018-11-03T10:17:42.625Z,96290.83
2018-11-03T10:20:11.380Z,96283.16
2018-11-03T10:22:40.141Z,96160.89
2018-11-03T10:25:12.905Z,96280.17
2018-11-03T10:27:41.943Z,96268.69
2018-11-03T10:30:11.766Z,96264.23
2018-11-03T10:32:41.054Z,96263.04
2018-11-03T10:35:10.972Z,96256.20
2018-11-03T10:37:39.718Z,96249.33
2018-11-03T10:40:10.697Z,96251.05
2018-11-03T10:42:39.679Z,96247.22
2018-11-03T10:45:10.445Z,96243.23
2018-11-03T10:47:39.888Z,96236.98
2018-11-03T10:50:11.416Z,96232.38
2018-11-03T10:52:41.316Z,96233.36
2018-11-03T10:55:11.945Z,96239.52
2018-11-03T10:57:41.309Z,96224.25
2018-11-03T11:00:15.658Z,96217.67
2018-11-03T11:02:49.934Z,96219.75
2018-11-03T11:05:23.891Z,96212.98
2018-11-03T11:07:58.107Z,96202.98
2018-11-03T11:10:32.298Z,96207.30
2018-11-03T11:13:04.105Z,96203.11
2018-11-03T11:15:32.845Z,96198.78
2018-11-03T11:18:01.646Z,96194.16
2018-11-03T11:20:30.494Z,96192.91
2018-11-03T11:22:59.368Z,96180.21
2018-11-03T11:25:28.344Z,96178.67
2018-11-03T11:27:57.442Z,96176.66
2018-11-03T11:30:30.350Z,96179.18
2018-11-03T11:32:59.153Z,96163.06
2018-11-03T11:35:27.983Z,96163.05
2018-11-03T11:37:56.805Z,96161.50
2018-11-03T11:40:25.655Z,96162.16
2018-11-03T11:42:54.524Z,96165.46
2018-11-03T11:45:23.247Z,96156.61
2018-11-03T11:47:51.960Z,96151.11
2018-11-03T11:50:21.642Z,96148.55
2018-11-03T11:52:50.468Z,96144.75
2018-11-03T11:55:19.269Z,96137.60
2018-11-03T11:57:48.277Z,96149.32
2018-11-03T12:00:16.983Z,96150.91
2018-11-03T12:02:45.670Z,96143.06
2018-11-03T12:05:14.638Z,96139.54
2018-11-03T12:07:43.321Z,96132.42
2018-11-03T12:10:12.047Z,96149.55
2018-11-03T12:12:40.648Z,96132.43
2018-11-03T12:15:10.373Z,96143.06
2018-11-03T12:17:39.070Z,96131.87
2018-11-03T12:20:08.123Z,96131.63
2018-11-03T12:22:37.065Z,96139.72
2018-11-03T12:25:06.521Z,96126.74
2018-11-03T12:27:35.184Z,96139.91
2018-11-03T12:30:07.927Z,96128.50
2018-11-03T12:32:36.645Z,96128.08
2018-11-03T12:35:05.652Z,96132.41
2018-11-03T12:37:34.449Z,96135.38
2018-11-03T12:40:03.120Z,96130.88
2018-11-03T12:42:31.762Z,96130.89
2018-11-03T12:45:00.458Z,96134.81
2018-11-03T12:47:29.134Z,96127.91
2018-11-03T12:50:00.779Z,96129.11
2018-11-03T12:52:30.721Z,96134.23
2018-11-03T12:54:59.749Z,96137.76
2018-11-03T12:57:28.498Z,96133.62
2018-11-03T12:59:57.152Z,96131.08
2018-11-03T13:02:25.784Z,96130.27
2018-11-03T13:04:54.465Z,96127.14
2018-11-03T13:07:23.164Z,96138.55
2018-11-03T13:09:52.059Z,96132.44
2018-11-03T13:12:20.760Z,96136.75
2018-11-03T13:14:49.379Z,96150.70
2018-11-03T13:17:17.997Z,96126.69
2018-11-03T13:19:46.811Z,96141.84
2018-11-03T13:22:15.445Z,96134.17
2018-11-03T13:24:44.120Z,96155.55
2018-11-03T13:27:12.781Z,96146.88
2018-11-03T13:29:41.449Z,96140.56
2018-11-03T13:32:10.810Z,96132.90
2018-11-03T13:34:39.465Z,96136.59
2018-11-03T13:37:08.099Z,96135.97
2018-11-03T13:39:36.813Z,96134.38
2018-11-03T13:42:05.622Z,96139.64
2018-11-03T13:44:34.224Z,96135.09
2018-11-03T13:47:02.956Z,96131.55
2018-11-03T13:49:31.686Z,96135.20
2018-11-03T13:52:00.301Z,96133.18
2018-11-03T13:54:29.237Z,96137.84
2018-11-03T13:56:57.946Z,96127.09
2018-11-03T13:59:26.608Z,96128.64
2018-11-03T14:01:55.558Z,96133.68
2018-11-03T14:04:24.239Z,96128.31
2018-11-03T14:06:52.967Z,96128.63
2018-11-03T14:09:21.601Z,96131.88
2018-11-03T14:11:50.244Z,96127.53
2018-11-03T14:14:18.860Z,96125.86
2018-11-03T14:16:47.476Z,96122.17
2018-11-03T14:19:16.186Z,96127.37
2018-11-03T14:21:44.831Z,96126.89
2018-11-03T14:24:13.577Z,96126.58
2018-11-03T14:26:42.238Z,96138.03
2018-11-03T14:29:10.993Z,96134.74
2018-11-03T14:31:39.638Z,96142.47
2018-11-03T14:34:09.513Z,96144.27
2018-11-03T14:36:38.274Z,96142.09
2018-11-03T14:39:08.576Z,96141.45
2018-11-03T14:41:37.204Z,96151.00
2018-11-03T14:44:06.954Z,96152.53
2018-11-03T14:46:35.628Z,96156.62
2018-11-03T14:49:04.266Z,96161.52
2018-11-03T14:51:32.910Z,96154.20
2018-11-03T14:54:01.568Z,96165.54
2018-11-03T14:56:30.225Z,96166.06
2018-11-03T14:58:58.975Z,96160.98
2018-11-03T15:01:27.651Z,96162.37
2018-11-03T15:03:56.301Z,96173.88
2018-11-03T15:06:25.038Z,96170.68
2018-11-03T15:08:53.706Z,96163.96
2018-11-03T15:11:22.313Z,96177.19
2018-11-03T15:13:51.087Z,95963.72
2018-11-03T15:16:19.654Z,96175.66
2018-11-03T15:18:48.353Z,96168.02
2018-11-03T15:21:17.013Z,96175.39
2018-11-03T15:23:45.691Z,96176.06
2018-11-03T15:26:14.313Z,96183.16
2018-11-03T15:28:42.933Z,96189.11
2018-11-03T15:31:11.646Z,96200.55
2018-11-03T15:33:40.321Z,96203.22
2018-11-03T15:36:09.029Z,96207.50
2018-11-03T15:38:37.728Z,96203.92
2018-11-03T15:41:06.623Z,96209.08
2018-11-03T15:43:35.261Z,96204.92
2018-11-03T15:46:03.945Z,96211.91
2018-11-03T15:48:32.545Z,96216.84
2018-11-03T15:51:01.194Z,96214.84
2018-11-03T15:53:29.855Z,96210.53
2018-11-03T15:55:58.485Z,96214.66
2018-11-03T15:58:27.148Z,96214.58
2018-11-03T16:00:55.904Z,96218.45
2018-11-03T16:03:24.530Z,96223.03
2018-11-03T16:05:53.153Z,96217.49
2018-11-03T16:08:21.793Z,96222.70
2018-11-03T16:10:50.433Z,96225.56
2018-11-03T16:13:19.153Z,96233.70
2018-11-03T16:15:47.829Z,96225.66
2018-11-03T16:18:16.482Z,96231.91
2018-11-03T16:20:45.351Z,96236.55
2018-11-03T16:23:13.977Z,96236.77
2018-11-03T16:25:42.690Z,96226.11
2018-11-03T16:28:11.396Z,96233.59
2018-11-03T16:30:40.098Z,96230.08
2018-11-03T16:33:08.747Z,96240.17
2018-11-03T16:35:37.497Z,96241.30
2018-11-03T16:38:06.144Z,96244.03
2018-11-03T16:40:35.102Z,96244.54
2018-11-03T16:43:03.745Z,96252.15
2018-11-03T16:45:32.493Z,96259.37
2018-11-03T16:48:01.109Z,96261.61
2018-11-03T16:50:29.718Z,96267.33
2018-11-03T16:52:58.365Z,96268.19
2018-11-03T16:55:27.253Z,96261.90
2018-11-03T16:57:55.872Z,96258.26
2018-11-03T17:00:24.583Z,96263.39
2018-11-03T17:02:53.220Z,96266.54
2018-11-03T17:05:21.858Z,96262.47
2018-11-03T17:07:50.482Z,96265.28
2018-11-03T17:10:19.128Z,96268.45
2018-11-03T17:12:48.301Z,96271.93
2018-11-03T17:15:17.233Z,96269.24
2018-11-03T17:17:45.882Z,96279.27
2018-11-03T17:20:14.581Z,96275.51
2018-11-03T17:22:43.371Z,96275.72
2018-11-03T17:25:12.893Z,96284.57
2018-11-03T17:27:41.653Z,96269.06
2018-11-03T17:30:13.041Z,96272.44
2018-11-03T17:32:41.774Z,96283.43
2018-11-03T17:35:10.806Z,96279.51
2018-11-03T17:37:39.467Z,96278.88
2018-11-03T17:40:09.066Z,96287.88
2018-11-03T17:42:37.777Z,96284.31
2018-11-03T17:45:07.186Z,96278.97
2018-11-03T17:47:35.984Z,96281.05
2018-11-03T17:50:05.160Z,96288.04
2018-11-03T17:52:33.868Z,96280.95
2018-11-03T17:55:02.610Z,96289.48
2018-11-03T17:57:31.651Z,96289.48
2018-11-03T18:00:00.352Z,96278.03
2018-11-03T18:02:29.045Z,96281.94
2018-11-03T18:04:57.725Z,96284.94
2018-11-03T18:07:26.413Z,96290.93
2018-11-03T18:09:55.054Z,96283.73
2018-11-03T18:12:24.614Z,96284.69
2018-11-03T18:14:53.368Z,96288.42
2018-11-03T18:17:22.553Z,96300.45
2018-11-03T18:19:51.276Z,96297.97
2018-11-03T18:22:34.613Z,96292.81
2018-11-03T18:25:03.589Z,96297.97
2018-11-03T18:27:32.230Z,96301.80
2018-11-03T18:30:00.862Z,96304.80
2018-11-03T18:32:29.634Z,96303.84
2018-11-03T18:34:58.287Z,96313.23
2018-11-03T18:37:27.010Z,96306.28
2018-11-03T18:39:55.732Z,96316.14
2018-11-03T18:42:24.479Z,96317.13
2018-11-03T18:44:53.170Z,96324.89
2018-11-03T18:47:22.036Z,96318.50
2018-11-03T18:49:50.758Z,96320.47
2018-11-03T18:52:19.872Z,96322.95
2018-11-03T18:54:48.597Z,96329.22
2018-11-03T18:57:17.298Z,96325.53
2018-11-03T18:59:46.144Z,96340.39
2018-11-03T19:02:14.994Z,96338.69
2018-11-03T19:04:43.865Z,96346.45
2018-11-03T19:07:12.541Z,96336.95
2018-11-03T19:09:41.228Z,96347.09
2018-11-03T19:12:09.867Z,96347.79
2018-11-03T19:14:38.566Z,96350.36
2018-11-03T19:17:07.360Z,96356.95
2018-11-03T19:19:35.989Z,96350.06
2018-11-03T19:22:04.801Z,96350.92
2018-11-03T19:24:33.478Z,96342.47
2018-11-03T19:27:02.214Z,96357.98
2018-11-03T19:29:30.898Z,96351.34
2018-11-03T19:31:59.677Z,96357.67
2018-11-03T19:34:28.458Z,96358.53
2018-11-03T19:36:57.199Z,96357.78
2018-11-03T19:39:26.486Z,96356.81
2018-11-03T19:41:55.148Z,96355.52
2018-11-03T19:44:23.827Z,96366.92
2018-11-03T19:46:52.577Z,96367.78
2018-11-03T19:49:21.249Z,96373.17
2018-11-03T19:51:50.115Z,96362.70
2018-11-03T19:54:18.746Z,96371.11
2018-11-03T19:56:47.382Z,96367.83
2018-11-03T19:59:16.005Z,96364.65
2018-11-03T20:01:44.691Z,96374.09
2018-11-03T20:04:13.309Z,96377.85
2018-11-03T20:06:41.909Z,96376.24
2018-11-03T20:09:10.563Z,96380.09
2018-11-03T20:11:39.236Z,96375.06
2018-11-03T20:14:08.046Z,96382.98
2018-11-03T20:16:36.689Z,96378.98
2018-11-03T20:19:05.523Z,96379.59
2018-11-03T20:21:34.189Z,96375.65
2018-11-03T20:24:02.805Z,96379.20
2018-11-03T20:26:31.561Z,96381.95
2018-11-03T20:29:00.227Z,96379.08
2018-11-03T20:31:29.133Z,96384.81
2018-11-03T20:33:57.815Z,96386.20
2018-11-03T20:36:26.466Z,96380.33
2018-11-03T20:38:55.117Z,96380.14
2018-11-03T20:41:23.746Z,96376.70
2018-11-03T20:43:52.388Z,96377.06
2018-11-03T20:46:21.041Z,96377.36
2018-11-03T20:48:49.732Z,96375.30
2018-11-03T20:51:18.384Z,96372.25
2018-11-03T20:53:47.152Z,96383.18
2018-11-03T20:56:15.800Z,96374.34
2018-11-03T20:58:44.409Z,96385.12
2018-11-03T21:01:13.033Z,96374.61
2018-11-03T21:03:41.818Z,96375.38
2018-11-03T21:06:10.498Z,96374.61
2018-11-03T21:08:39.213Z,96375.69
2018-11-03T21:11:07.947Z,96387.81
2018-11-03T21:13:36.577Z,96379.78
2018-11-03T21:16:05.333Z,96375.29
2018-11-03T21:18:33.998Z,96378.58
2018-11-03T21:21:02.697Z,96372.46
2018-11-03T21:23:31.541Z,96373.28
2018-11-03T21:26:00.033Z,96333.38
2018-11-03T21:28:28.669Z,96378.39
2018-11-03T21:30:57.393Z,96378.17
2018-11-03T21:33:26.179Z,96369.34
2018-11-03T21:35:54.733Z,96363.17
2018-11-03T21:38:23.438Z,96369.91
2018-11-03T21:40:52.120Z,96370.76
2018-11-03T21:43:20.758Z,96369.64
2018-11-03T21:45:49.448Z,96363.95
2018-11-03T21:48:18.083Z,96369.64
2018-11-03T21:50:46.732Z,96363.45
2018-11-03T21:53:15.445Z,96354.88
2018-11-03T21:55:44.183Z,96355.73
2018-11-03T21:58:12.814Z,96351.73
2018-11-03T22:00:41.520Z,96348.50
2018-11-03T22:03:10.169Z,96098.55
2018-11-03T22:05:38.810Z,96350.39
2018-11-03T22:08:08.477Z,96345.22
2018-11-03T22:10:37.140Z,96347.39
2018-11-03T22:13:05.878Z,96349.63
2018-11-03T22:15:34.578Z,96344.02
2018-11-03T22:18:03.311Z,96336.83
2018-11-03T22:20:31.990Z,96336.48
2018-11-03T22:23:00.646Z,96337.52
2018-11-03T22:25:29.410Z,96334.23
2018-11-03T22:27:58.085Z,96344.20
2018-11-03T22:30:26.725Z,96334.59
2018-11-03T22:32:55.411Z,96332.75
2018-11-03T22:35:24.040Z,96334.37
2018-11-03T22:37:52.692Z,96333.33
2018-11-03T22:40:21.342Z,96334.19
2018-11-03T22:42:49.962Z,96327.73
2018-11-03T22:45:18.598Z,96329.84
2018-11-03T22:47:47.279Z,96322.07
2018-11-03T22:50:15.896Z,96326.06
2018-11-03T22:52:44.672Z,96318.52
2018-11-03T22:55:13.434Z,96314.44
2018-11-03T22:57:42.074Z,96319.16
2018-11-03T23:00:13.317Z,96314.97
2018-11-03T23:02:42.601Z,96318.16
2018-11-03T23:05:12.377Z,96302.47
2018-11-03T23:07:41.221Z,96304.00
2018-11-03T23:10:10.062Z,96303.58
2018-11-03T23:12:38.822Z,96305.73
2018-11-03T23:15:08.396Z,96307.94
2018-11-03T23:17:37.101Z,96300.45
2018-11-03T23:20:08.187Z,96299.16
2018-11-03T23:22:38.051Z,96307.28
2018-11-03T23:25:07.300Z,96309.30
2018-11-03T23:27:36.042Z,96302.08
2018-11-03T23:30:10.188Z,96306.45
2018-11-03T23:32:38.800Z,96303.31
2018-11-03T23:35:08.806Z,96306.91
2018-11-03T23:37:37.509Z,96305.96
2018-11-03T23:40:07.183Z,96313.23
2018-11-03T23:42:35.884Z,96302.82
2018-11-03T23:45:05.090Z,96301.03
2018-11-03T23:47:33.762Z,96307.89
2018-11-03T23:50:02.501Z,96306.95
2018-11-03T23:52:33.081Z,96301.30
2018-11-03T23:55:02.721Z,96301.84
2018-11-03T23:57:31.362Z,96301.89
